Time;durP1;ratioP1;P1;durP2;ratioP2;P2;SDS_P1;SDS_P2;PMS_P1;PMS_P2;Temp;Humidity;BMP_temperature;BMP_pressure;BME280_temperature;BME280_humidity;BME280_pressure;Samples;Min_cycle;Max_cycle;Signal;HPM_P1;HPM_P2
2021/12/27 00:00:10;;;;;;;43.45;23.75;;;;;;;2.30;100.00;100178.28;5023567;28;20041;-76
2021/12/27 00:02:38;;;;;;;48.50;23.48;;;;;;;2.39;100.00;100179.50;5040039;28;20036;-75
2021/12/27 00:05:05;;;;;;;42.55;22.42;;;;;;;2.28;100.00;100183.09;5042769;28;20194;-77
2021/12/27 00:07:32;;;;;;;45.58;23.55;;;;;;;2.28;100.00;100170.41;5062634;28;20029;-78
2021/12/27 00:09:58;;;;;;;38.90;21.83;;;;;;;2.41;100.00;100172.00;5062455;28;20036;-77
2021/12/27 00:12:23;;;;;;;42.75;22.55;;;;;;;2.31;100.00;100164.53;5046603;28;20051;-79
2021/12/27 00:14:48;;;;;;;38.50;22.60;;;;;;;2.24;100.00;100161.13;5020120;28;20116;-78
2021/12/27 00:17:15;;;;;;;34.72;21.63;;;;;;;2.34;100.00;100160.50;5034552;28;20032;-76
2021/12/27 00:19:41;;;;;;;38.85;23.15;;;;;;;2.19;100.00;100156.44;5023472;28;20037;-76
2021/12/27 00:22:08;;;;;;;37.60;22.38;;;;;;;2.41;100.00;100144.94;5050700;28;20028;-76
2021/12/27 00:24:34;;;;;;;41.28;22.90;;;;;;;2.43;100.00;100140.09;5039298;28;20056;-77
2021/12/27 00:26:59;;;;;;;37.97;22.40;;;;;;;2.47;100.00;100133.13;5038222;28;20155;-76
2021/12/27 00:29:25;;;;;;;45.22;23.30;;;;;;;2.44;100.00;100138.22;5056719;28;20029;-79
2021/12/27 00:31:51;;;;;;;36.92;23.08;;;;;;;2.38;100.00;100137.31;5025652;28;20055;-78
2021/12/27 00:34:16;;;;;;;38.53;22.13;;;;;;;2.51;100.00;100134.28;5059100;28;20033;-76
2021/12/27 00:36:42;;;;;;;41.55;22.80;;;;;;;2.48;100.00;100137.47;5038268;28;20067;-76
2021/12/27 00:39:08;;;;;;;42.20;23.90;;;;;;;2.56;100.00;100131.66;5008488;28;20029;-76
2021/12/27 00:41:33;;;;;;;37.40;21.92;;;;;;;2.56;100.00;100126.25;5042257;28;20040;-76
2021/12/27 00:43:59;;;;;;;33.72;21.20;;;;;;;2.58;100.00;100123.28;5042559;28;20528;-74
2021/12/27 00:46:24;;;;;;;34.58;21.95;;;;;;;2.56;100.00;100118.13;5052891;28;20391;-76
2021/12/27 00:48:51;;;;;;;40.30;22.55;;;;;;;2.56;100.00;100120.03;5038355;28;20407;-77
2021/12/27 00:51:16;;;;;;;39.78;22.73;;;;;;;2.55;100.00;100116.47;5044626;28;20390;-77
2021/12/27 00:53:43;;;;;;;37.40;21.35;;;;;;;2.51;100.00;100111.78;5058596;28;20468;-77
2021/12/27 00:56:08;;;;;;;35.10;22.48;;;;;;;2.60;100.00;100110.31;5043952;28;20044;-76
2021/12/27 00:58:34;;;;;;;35.13;21.52;;;;;;;2.66;100.00;100103.13;5040972;28;20045;-77
2021/12/27 01:00:59;;;;;;;36.88;22.75;;;;;;;2.68;100.00;100104.50;5038643;28;20025;-77
2021/12/27 01:03:25;;;;;;;39.50;22.17;;;;;;;2.65;100.00;100099.56;5058784;28;20058;-76
2021/12/27 01:05:51;;;;;;;40.13;22.90;;;;;;;2.69;100.00;100086.34;5058505;28;20028;-76
2021/12/27 01:08:17;;;;;;;35.38;23.10;;;;;;;2.73;100.00;100085.63;5054176;28;20443;-78
2021/12/27 01:11:02;;;;;;;44.92;23.70;;;;;;;2.76;100.00;100087.84;5035471;28;20071;-74
2021/12/27 01:13:41;;;;;;;36.72;21.10;;;;;;;2.67;100.00;100094.75;5012172;28;20037;-75
2021/12/27 01:18:35;;;;;;;35.85;21.42;;;;;;;2.74;100.00;100092.69;5046005;28;20033;-75
2021/12/27 01:21:01;;;;;;;44.97;22.77;;;;;;;2.77;100.00;100091.34;5044295;28;20048;-77
2021/12/27 01:23:27;;;;;;;42.17;22.35;;;;;;;2.72;100.00;100091.28;5059510;28;20028;-76
2021/12/27 01:25:55;;;;;;;42.95;22.45;;;;;;;2.70;100.00;100074.47;5052985;28;20033;-76
2021/12/27 01:28:21;;;;;;;39.08;23.70;;;;;;;2.69;100.00;100075.53;5036054;28;20060;-75
2021/12/27 01:30:49;;;;;;;49.15;25.00;;;;;;;2.80;100.00;100080.03;5059289;28;20573;-76
2021/12/27 01:33:17;;;;;;;40.80;22.35;;;;;;;2.77;100.00;100075.09;5056368;28;20494;-76
2021/12/27 01:35:50;;;;;;;38.72;22.60;;;;;;;2.73;100.00;100074.78;5054011;28;20044;-76
2021/12/27 01:38:16;;;;;;;39.35;22.27;;;;;;;2.73;100.00;100072.09;5064687;28;20036;-76
2021/12/27 01:40:48;;;;;;;39.15;21.75;;;;;;;2.65;100.00;100064.38;5058969;28;20224;-75
2021/12/27 01:43:16;;;;;;;54.65;23.65;;;;;;;2.66;100.00;100060.63;5025892;28;20037;-76
2021/12/27 01:45:45;;;;;;;42.95;22.75;;;;;;;2.89;100.00;100066.91;5050878;28;20032;-76
2021/12/27 01:48:12;;;;;;;42.63;22.80;;;;;;;2.88;100.00;100074.19;5053231;28;20120;-76
2021/12/27 01:50:42;;;;;;;35.60;21.52;;;;;;;3.00;100.00;100071.38;5046125;28;20132;-76
2021/12/27 01:53:10;;;;;;;45.38;24.15;;;;;;;2.96;100.00;100059.41;5056071;28;20080;-76
2021/12/27 01:55:36;;;;;;;46.28;24.52;;;;;;;3.00;100.00;100065.13;5039480;28;20108;-76
2021/12/27 01:58:02;;;;;;;50.15;24.33;;;;;;;3.07;100.00;100072.00;5060541;28;20044;-75
2021/12/27 02:00:28;;;;;;;43.75;23.10;;;;;;;3.04;100.00;100067.09;5058581;28;20028;-76
2021/12/27 02:02:53;;;;;;;39.20;21.60;;;;;;;3.01;100.00;100064.06;5049784;28;20497;-76
2021/12/27 02:05:19;;;;;;;46.55;23.17;;;;;;;2.93;100.00;100076.16;5051665;28;20467;-75
2021/12/27 02:07:45;;;;;;;43.70;24.02;;;;;;;3.11;100.00;100083.97;5024605;28;20043;-76
2021/12/27 02:10:12;;;;;;;48.53;25.45;;;;;;;3.06;100.00;100070.34;5052203;28;20116;-76
2021/12/27 02:12:38;;;;;;;54.33;26.27;;;;;;;3.12;100.00;100072.06;5044052;28;20563;-76
2021/12/27 02:15:09;;;;;;;58.42;25.27;;;;;;;3.19;100.00;100080.00;5046513;28;20356;-76
2021/12/27 02:17:41;;;;;;;42.85;22.70;;;;;;;3.09;100.00;100080.69;5063871;28;20314;-75
2021/12/27 02:20:18;;;;;;;48.35;25.50;;;;;;;3.21;100.00;100077.84;5048149;28;20069;-76
2021/12/27 02:22:45;;;;;;;48.80;24.88;;;;;;;3.36;100.00;100071.00;5046641;28;20231;-76
2021/12/27 02:25:12;;;;;;;58.88;26.20;;;;;;;3.22;100.00;100074.09;5060230;28;20419;-76
2021/12/27 02:27:39;;;;;;;43.05;22.70;;;;;;;3.16;100.00;100072.38;5017106;28;20321;-75
2021/12/27 02:30:07;;;;;;;43.80;23.88;;;;;;;3.22;100.00;100065.97;5058675;28;20024;-76
2021/12/27 02:32:33;;;;;;;48.03;24.60;;;;;;;3.31;100.00;100064.47;5061143;28;20163;-75
2021/12/27 02:34:59;;;;;;;39.42;22.63;;;;;;;3.41;100.00;100066.47;5042932;28;20076;-75
2021/12/27 02:37:25;;;;;;;41.95;23.23;;;;;;;3.28;100.00;100064.97;5043016;28;20118;-75
2021/12/27 02:39:52;;;;;;;41.30;21.58;;;;;;;3.34;100.00;100065.00;5046256;28;20383;-75
2021/12/27 02:42:19;;;;;;;37.42;21.98;;;;;;;3.38;100.00;100066.97;5046173;28;20032;-75
2021/12/27 02:44:45;;;;;;;30.45;19.75;;;;;;;3.48;100.00;100058.13;5050719;28;20036;-75
2021/12/27 02:47:16;;;;;;;32.17;20.02;;;;;;;3.46;100.00;100057.56;5053958;28;20063;-75
2021/12/27 02:49:41;;;;;;;30.13;19.27;;;;;;;3.60;100.00;100068.84;5058598;28;20032;-75
2021/12/27 02:52:07;;;;;;;34.47;20.85;;;;;;;3.55;100.00;100061.47;5042956;28;20029;-75
2021/12/27 02:54:33;;;;;;;41.78;21.85;;;;;;;3.63;100.00;100057.47;5042059;28;20036;-75
2021/12/27 02:56:58;;;;;;;31.05;19.33;;;;;;;3.61;100.00;100048.78;5061840;28;20471;-75
2021/12/27 02:59:23;;;;;;;32.90;19.83;;;;;;;3.63;100.00;100041.22;5035597;28;20036;-75
2021/12/27 03:01:49;;;;;;;48.38;22.95;;;;;;;3.62;100.00;100045.84;5048169;28;20032;-75
2021/12/27 03:04:14;;;;;;;33.17;19.23;;;;;;;3.63;100.00;100038.50;5020406;28;20044;-75
2021/12/27 03:06:40;;;;;;;34.67;19.63;;;;;;;3.59;100.00;100035.50;5034324;28;20553;-74
2021/12/27 03:09:05;;;;;;;44.58;22.83;;;;;;;3.44;100.00;100027.19;5043733;28;20090;-74
2021/12/27 03:11:30;;;;;;;58.45;21.70;;;;;;;3.33;100.00;100030.84;5044937;28;20087;-74
2021/12/27 03:13:57;;;;;;;57.25;23.75;;;;;;;3.31;100.00;100029.22;5042163;28;20062;-73
2021/12/27 03:16:25;;;;;;;31.48;19.15;;;;;;;3.41;100.00;100023.09;5020929;28;20047;-74
2021/12/27 03:18:54;;;;;;;27.83;17.67;;;;;;;3.59;100.00;100021.94;5060605;28;20654;-74
2021/12/27 03:21:21;;;;;;;31.00;18.80;;;;;;;3.65;100.00;100022.78;5042518;28;20056;-75
2021/12/27 03:23:48;;;;;;;48.53;21.48;;;;;;;3.59;100.00;100018.38;5058176;28;20132;-75
2021/12/27 03:26:14;;;;;;;37.97;18.80;;;;;;;3.66;100.00;100017.13;5058608;28;20081;-75
2021/12/27 03:28:41;;;;;;;45.33;20.50;;;;;;;3.65;100.00;100025.50;5051628;28;20117;-75
2021/12/27 03:31:08;;;;;;;29.67;18.40;;;;;;;3.68;100.00;100012.25;5046955;28;20080;-74
2021/12/27 03:33:34;;;;;;;47.35;20.75;;;;;;;3.75;100.00;100019.38;5055080;28;20032;-74
2021/12/27 03:36:01;;;;;;;40.10;19.10;;;;;;;3.65;100.00;100015.47;5048038;28;20065;-75
2021/12/27 03:38:29;;;;;;;40.55;18.85;;;;;;;3.65;100.00;100001.91;5048145;28;20478;-74
2021/12/27 03:40:57;;;;;;;34.88;18.88;;;;;;;3.72;100.00;99996.28;5048846;28;20036;-74
2021/12/27 03:43:22;;;;;;;49.20;19.10;;;;;;;3.58;100.00;100001.31;5043320;28;20130;-73
2021/12/27 03:45:48;;;;;;;92.25;22.65;;;;;;;3.63;100.00;100001.38;5043962;28;20041;-74
2021/12/27 03:48:13;;;;;;;62.90;22.42;;;;;;;3.61;100.00;100005.41;5031473;28;20506;-75
2021/12/27 03:50:39;;;;;;;65.97;23.88;;;;;;;3.64;100.00;100004.88;5042941;28;20032;-74
2021/12/27 03:53:06;;;;;;;31.52;20.17;;;;;;;3.67;100.00;100004.38;5056344;28;20447;-75
2021/12/27 03:55:32;;;;;;;58.20;23.40;;;;;;;3.79;100.00;99996.09;5058582;28;20140;-74
2021/12/27 03:58:11;;;;;;;44.33;18.90;;;;;;;3.84;100.00;99999.66;5022652;28;20111;-73
2021/12/27 04:00:48;;;;;;;77.72;24.27;;;;;;;3.78;100.00;99994.44;5054932;28;20032;-74
2021/12/27 04:03:17;;;;;;;65.50;23.60;;;;;;;3.83;100.00;99989.06;5054000;28;20484;-74
2021/12/27 04:05:43;;;;;;;50.45;20.27;;;;;;;3.83;100.00;99994.50;5043331;28;20435;-75
2021/12/27 04:08:09;;;;;;;32.30;18.27;;;;;;;3.85;100.00;99989.63;5043260;28;20085;-74
2021/12/27 04:10:39;;;;;;;39.65;19.67;;;;;;;3.78;100.00;99992.56;5046963;28;20054;-75
2021/12/27 04:13:07;;;;;;;36.97;19.63;;;;;;;3.79;100.00;99991.47;5048835;28;20036;-74
2021/12/27 04:15:33;;;;;;;50.72;21.48;;;;;;;3.80;100.00;99976.84;5053276;28;20033;-74
2021/12/27 04:18:00;;;;;;;45.72;21.40;;;;;;;3.79;100.00;99982.53;5054727;28;20130;-74
2021/12/27 04:20:26;;;;;;;45.63;20.73;;;;;;;3.83;100.00;99979.03;5027977;28;20034;-74
2021/12/27 04:22:52;;;;;;;45.25;20.15;;;;;;;3.75;100.00;99970.56;5062698;28;20021;-75
2021/12/27 04:25:19;;;;;;;50.90;21.23;;;;;;;3.66;100.00;99968.31;5041747;28;20450;-73
2021/12/27 04:27:45;;;;;;;56.40;24.08;;;;;;;3.65;100.00;99963.16;5049776;28;20036;-73
2021/12/27 04:30:12;;;;;;;45.60;22.15;;;;;;;3.64;100.00;99964.22;5049236;28;20039;-74
2021/12/27 04:32:37;;;;;;;44.83;21.33;;;;;;;3.73;100.00;99961.88;5051013;28;20054;-74
2021/12/27 04:35:04;;;;;;;53.35;21.38;;;;;;;3.78;100.00;99962.72;5045897;28;20090;-74
2021/12/27 04:37:30;;;;;;;40.65;21.20;;;;;;;3.64;100.00;99958.81;5054343;28;20077;-74
2021/12/27 04:39:58;;;;;;;66.00;22.40;;;;;;;3.64;100.00;99965.06;5056074;28;20128;-74
2021/12/27 04:42:25;;;;;;;83.85;24.85;;;;;;;3.64;100.00;99956.94;5048432;28;20422;-74
2021/12/27 04:44:50;;;;;;;48.95;21.75;;;;;;;3.75;100.00;99941.56;5062683;28;20036;-74
2021/12/27 04:47:16;;;;;;;62.92;22.13;;;;;;;3.75;100.00;99951.59;5039135;28;20032;-74
2021/12/27 04:49:43;;;;;;;53.72;22.35;;;;;;;3.81;100.00;99954.06;5059176;28;20081;-74
2021/12/27 04:52:10;;;;;;;76.85;23.73;;;;;;;3.70;100.00;99948.84;5064409;28;20020;-74
2021/12/27 04:54:36;;;;;;;64.82;21.95;;;;;;;3.83;100.00;99951.09;5059479;28;20035;-74
2021/12/27 04:57:03;;;;;;;74.65;23.35;;;;;;;3.75;100.00;99944.25;5029690;28;20032;-74
2021/12/27 04:59:29;;;;;;;60.10;23.50;;;;;;;3.76;100.00;99947.81;5027856;28;20037;-75
2021/12/27 05:01:55;;;;;;;72.78;25.77;;;;;;;3.87;100.00;99946.81;5064803;28;20102;-74
2021/12/27 05:04:21;;;;;;;105.72;27.45;;;;;;;3.95;100.00;99942.78;5062943;28;20032;-74
2021/12/27 05:06:46;;;;;;;69.80;23.33;;;;;;;3.97;100.00;99944.19;5057189;28;20498;-74
2021/12/27 05:09:11;;;;;;;37.88;20.40;;;;;;;4.00;100.00;99942.81;5064863;28;20024;-73
2021/12/27 05:11:37;;;;;;;125.88;29.65;;;;;;;3.91;100.00;99928.13;5054158;28;20033;-73
2021/12/27 05:14:04;;;;;;;99.32;25.30;;;;;;;3.89;100.00;99927.53;5029750;28;20025;-74
2021/12/27 05:16:31;;;;;;;116.45;30.33;;;;;;;3.87;100.00;99925.13;5011800;28;20037;-73
2021/12/27 05:18:56;;;;;;;124.95;29.90;;;;;;;3.92;100.00;99917.03;5057358;28;20028;-74
2021/12/27 05:21:21;;;;;;;137.48;31.60;;;;;;;3.82;100.00;99920.47;5044655;28;20032;-74
2021/12/27 05:23:47;;;;;;;83.63;26.60;;;;;;;4.02;100.00;99930.66;5028622;28;20075;-75
2021/12/27 05:26:12;;;;;;;60.45;25.85;;;;;;;3.98;100.00;99924.09;5043365;28;20401;-74
2021/12/27 05:28:37;;;;;;;52.30;22.95;;;;;;;4.07;100.00;99920.88;5045305;28;20025;-74
2021/12/27 05:31:03;;;;;;;54.03;23.88;;;;;;;4.03;100.00;99921.44;5042485;28;20151;-73
2021/12/27 05:33:28;;;;;;;56.75;24.35;;;;;;;4.09;100.00;99921.47;5044206;28;20726;-73
2021/12/27 05:35:54;;;;;;;49.58;22.83;;;;;;;4.03;100.00;99916.00;5043093;28;20208;-73
2021/12/27 05:38:19;;;;;;;56.42;23.80;;;;;;;4.12;100.00;99918.22;5052149;28;20048;-76
2021/12/27 05:40:45;;;;;;;55.20;23.15;;;;;;;4.12;100.00;99912.81;5064651;28;20047;-73
2021/12/27 05:43:11;;;;;;;93.30;28.60;;;;;;;4.14;100.00;99913.34;5048517;28;20314;-73
2021/12/27 05:45:37;;;;;;;150.43;31.88;;;;;;;4.09;100.00;99922.28;5030691;28;20024;-74
2021/12/27 05:48:05;;;;;;;114.60;29.33;;;;;;;4.09;100.00;99918.75;5058830;28;20021;-74
2021/12/27 05:50:33;;;;;;;75.07;25.30;;;;;;;4.17;100.00;99910.13;5061770;28;20378;-74
2021/12/27 05:53:01;;;;;;;70.40;25.38;;;;;;;4.18;100.00;99901.72;5061951;28;20086;-74
2021/12/27 05:55:27;;;;;;;59.47;25.55;;;;;;;4.33;100.00;99911.00;5042890;28;20067;-74
2021/12/27 05:57:53;;;;;;;125.78;28.85;;;;;;;4.39;100.00;99916.22;5042517;28;20039;-74
2021/12/27 06:00:19;;;;;;;73.07;25.42;;;;;;;4.38;100.00;99922.72;5050944;28;20028;-74
2021/12/27 06:02:45;;;;;;;56.90;23.83;;;;;;;4.46;100.00;99918.69;5056546;28;20028;-74
2021/12/27 06:05:12;;;;;;;57.50;24.23;;;;;;;4.46;100.00;99918.69;5048861;28;20029;-74
2021/12/27 06:07:38;;;;;;;51.42;24.95;;;;;;;4.53;100.00;99923.88;5062428;28;20029;-74
2021/12/27 06:10:04;;;;;;;125.50;30.27;;;;;;;4.53;100.00;99927.41;5046437;28;20044;-75
2021/12/27 06:12:30;;;;;;;47.42;23.70;;;;;;;4.51;100.00;99924.16;5053543;28;20508;-75
2021/12/27 06:14:55;;;;;;;89.32;29.10;;;;;;;4.56;100.00;99928.78;5045460;28;20633;-74
2021/12/27 06:17:21;;;;;;;49.25;23.65;;;;;;;4.53;100.00;99927.41;5062859;28;20024;-73
2021/12/27 06:19:46;;;;;;;59.80;25.77;;;;;;;4.56;100.00;99920.66;5047250;28;20032;-74
2021/12/27 06:22:14;;;;;;;100.55;26.05;;;;;;;4.63;100.00;99923.13;5050567;28;20032;-75
2021/12/27 06:24:39;;;;;;;67.03;26.58;;;;;;;4.56;100.00;99918.72;5030884;28;20097;-75
2021/12/27 06:27:06;;;;;;;77.43;28.83;;;;;;;4.66;100.00;99907.09;5056633;28;20482;-74
2021/12/27 06:29:31;;;;;;;65.80;26.55;;;;;;;4.65;100.00;99915.50;5032894;28;20041;-73
2021/12/27 06:31:56;;;;;;;154.18;33.25;;;;;;;4.70;100.00;99912.81;5027510;28;20614;-74
2021/12/27 06:34:22;;;;;;;47.80;22.23;;;;;;;4.79;100.00;99912.03;5039656;28;20319;-75
2021/12/27 06:36:47;;;;;;;58.40;25.48;;;;;;;4.77;100.00;99913.38;5027213;28;20060;-73
2021/12/27 06:39:14;;;;;;;47.25;24.20;;;;;;;4.82;100.00;99907.16;5042413;28;20033;-73
2021/12/27 06:41:40;;;;;;;51.20;22.88;;;;;;;4.84;100.00;99907.69;5029282;28;20064;-73
2021/12/27 06:44:06;;;;;;;185.07;34.40;;;;;;;4.66;100.00;99906.28;5058058;28;20033;-73
2021/12/27 06:46:31;;;;;;;64.63;26.70;;;;;;;4.67;100.00;99895.16;5034720;28;20096;-74
2021/12/27 06:48:56;;;;;;;55.35;25.67;;;;;;;4.84;100.00;99913.13;5026697;28;20025;-73
2021/12/27 06:51:22;;;;;;;74.28;26.70;;;;;;;4.95;100.00;99914.78;5051697;28;20466;-74
2021/12/27 06:53:47;;;;;;;70.55;26.42;;;;;;;4.92;100.00;99918.88;5047354;28;20024;-73
2021/12/27 06:56:15;;;;;;;72.32;28.33;;;;;;;4.84;100.00;99915.84;5047564;28;20033;-74
2021/12/27 06:58:40;;;;;;;72.45;26.23;;;;;;;4.93;100.00;99916.97;5031083;28;20032;-74
2021/12/27 07:01:06;;;;;;;94.38;29.27;;;;;;;4.86;100.00;99911.78;5041915;28;20060;-74
2021/12/27 07:03:31;;;;;;;73.90;28.30;;;;;;;4.87;100.00;99910.72;5042232;28;20394;-74
2021/12/27 07:05:57;;;;;;;74.53;30.13;;;;;;;4.98;100.00;99919.69;5051119;28;20345;-74
2021/12/27 07:08:22;;;;;;;82.07;29.15;;;;;;;4.87;100.00;99909.88;5038418;28;20029;-74
2021/12/27 07:10:49;;;;;;;53.05;26.23;;;;;;;4.84;100.00;99897.66;5064574;28;20120;-74
2021/12/27 07:13:17;;;;;;;68.15;26.27;;;;;;;4.95;100.00;99898.50;5037142;28;20052;-74
2021/12/27 07:15:42;;;;;;;52.05;26.83;;;;;;;4.85;100.00;99902.00;5023620;28;20540;-74
2021/12/27 07:18:09;;;;;;;69.82;28.23;;;;;;;4.86;100.00;99895.50;5055304;28;20025;-74
2021/12/27 07:20:35;;;;;;;78.10;29.38;;;;;;;4.99;100.00;99896.88;5051679;28;20029;-74
2021/12/27 07:23:01;;;;;;;78.25;30.55;;;;;;;5.09;100.00;99901.53;5062286;28;20036;-75
2021/12/27 07:25:27;;;;;;;73.43;29.15;;;;;;;5.06;100.00;99899.34;5020439;28;20028;-74
2021/12/27 07:27:52;;;;;;;72.97;29.20;;;;;;;5.11;100.00;99896.63;5028694;28;20033;-73
2021/12/27 07:30:18;;;;;;;184.70;36.53;;;;;;;5.08;100.00;99900.72;5055860;28;20028;-73
2021/12/27 07:32:44;;;;;;;58.30;26.95;;;;;;;5.09;100.00;99893.38;5063187;28;20052;-74
2021/12/27 07:35:10;;;;;;;115.97;32.50;;;;;;;5.07;100.00;99899.06;5060047;28;20475;-73
2021/12/27 07:37:36;;;;;;;139.43;31.05;;;;;;;5.19;100.00;99890.66;5056585;28;20440;-74
2021/12/27 07:40:02;;;;;;;49.50;25.17;;;;;;;5.16;100.00;99888.47;5060181;28;20039;-74
2021/12/27 07:42:28;;;;;;;74.88;27.77;;;;;;;5.21;100.00;99891.19;5058567;28;20029;-74
2021/12/27 07:44:53;;;;;;;61.45;28.65;;;;;;;5.18;100.00;99893.66;5046070;28;20391;-75
2021/12/27 07:47:37;;;;;;;133.45;32.50;;;;;;;5.07;100.00;99896.34;5027966;28;20029;-75
2021/12/27 07:50:05;;;;;;;62.65;27.95;;;;;;;5.27;100.00;99886.59;5050712;28;20028;-75
2021/12/27 07:52:31;;;;;;;76.97;30.10;;;;;;;5.32;100.00;99890.13;5062992;28;20025;-74
2021/12/27 07:54:56;;;;;;;93.35;31.58;;;;;;;5.42;100.00;99891.25;5068232;28;20106;-74
2021/12/27 07:57:23;;;;;;;60.25;27.92;;;;;;;5.39;100.00;99889.88;5068882;28;20025;-75
2021/12/27 07:59:49;;;;;;;115.90;31.35;;;;;;;5.34;100.00;99887.97;5047816;28;20055;-73
2021/12/27 08:02:16;;;;;;;103.22;32.88;;;;;;;5.29;100.00;99881.72;5065861;28;20092;-75
2021/12/27 08:04:41;;;;;;;82.47;29.70;;;;;;;5.24;100.00;99879.78;5047466;28;20111;-74
2021/12/27 08:07:07;;;;;;;147.90;33.22;;;;;;;5.34;100.00;99882.53;5031886;28;20132;-74
2021/12/27 08:09:32;;;;;;;97.45;31.45;;;;;;;5.32;100.00;99873.81;5046272;28;20554;-75
2021/12/27 08:11:58;;;;;;;85.70;28.50;;;;;;;5.25;100.00;99869.75;5053531;28;20025;-74
2021/12/27 08:14:25;;;;;;;61.58;27.30;;;;;;;5.25;100.00;99867.03;5066202;28;20021;-74
2021/12/27 08:16:51;;;;;;;127.00;33.22;;;;;;;5.29;100.00;99877.09;5056163;28;20110;-75
2021/12/27 08:19:16;;;;;;;149.15;34.58;;;;;;;5.29;100.00;99870.84;5060360;28;20052;-73
2021/12/27 08:21:41;;;;;;;123.05;31.60;;;;;;;5.28;100.00;99864.59;5070869;28;20036;-74
2021/12/27 08:24:08;;;;;;;145.15;31.73;;;;;;;5.37;100.00;99867.59;5070602;28;20034;-74
2021/12/27 08:26:33;;;;;;;139.73;32.22;;;;;;;5.42;100.00;99869.50;5060035;28;20025;-73
2021/12/27 08:29:03;;;;;;;73.25;28.02;;;;;;;5.35;100.00;99869.75;5030284;28;20118;-74
2021/12/27 08:31:29;;;;;;;128.55;31.63;;;;;;;5.44;100.00;99867.31;5046800;28;20041;-74
2021/12/27 08:33:54;;;;;;;108.20;31.83;;;;;;;5.30;100.00;99870.56;5048871;28;20051;-74
2021/12/27 08:36:20;;;;;;;246.40;37.00;;;;;;;5.57;100.00;99857.78;5050988;28;20040;-75
2021/12/27 08:38:48;;;;;;;118.30;30.33;;;;;;;5.57;100.00;99855.88;5042597;28;20124;-74
2021/12/27 08:41:15;;;;;;;73.57;29.00;;;;;;;5.49;100.00;99862.69;5025660;28;20025;-73
2021/12/27 08:43:41;;;;;;;116.47;30.20;;;;;;;5.56;100.00;99865.16;5040044;28;20385;-74
2021/12/27 08:46:07;;;;;;;135.23;31.60;;;;;;;5.52;100.00;99864.03;5039339;28;20543;-74
2021/12/27 08:48:32;;;;;;;69.13;28.40;;;;;;;5.63;100.00;99856.72;5056446;28;20107;-74
2021/12/27 08:50:58;;;;;;;62.97;27.75;;;;;;;5.65;100.00;99855.34;5043726;28;20108;-75
2021/12/27 08:53:24;;;;;;;190.52;36.60;;;;;;;5.71;100.00;99843.38;5021116;28;20119;-74
2021/12/27 08:55:49;;;;;;;167.05;31.67;;;;;;;5.66;100.00;99851.53;5036984;28;20029;-74
2021/12/27 08:58:15;;;;;;;85.95;29.42;;;;;;;5.82;100.00;99855.06;5026272;28;20060;-73
2021/12/27 09:00:41;;;;;;;160.30;34.53;;;;;;;5.88;100.00;99842.25;5040969;28;20028;-74
2021/12/27 09:03:07;;;;;;;193.45;35.10;;;;;;;5.65;100.00;99835.50;5051605;28;20086;-74
2021/12/27 09:05:32;;;;;;;103.88;28.58;;;;;;;5.65;100.00;99825.41;5059781;28;20036;-73
2021/12/27 09:07:58;;;;;;;119.05;30.70;;;;;;;5.78;100.00;99821.31;5038061;28;20438;-73
2021/12/27 09:10:23;;;;;;;97.30;28.15;;;;;;;5.75;100.00;99831.94;5041769;28;20028;-72
2021/12/27 09:12:49;;;;;;;80.82;25.98;;;;;;;5.87;100.00;99836.00;5038311;28;20102;-72
2021/12/27 09:15:15;;;;;;;158.07;33.08;;;;;;;5.84;100.00;99852.88;5064393;28;20036;-71
2021/12/27 09:17:41;;;;;;;63.97;25.67;;;;;;;5.95;100.00;99852.84;5052604;28;20235;-73
2021/12/27 09:20:08;;;;;;;69.07;25.30;;;;;;;5.90;100.00;99878.16;5046522;28;20113;-74
2021/12/27 09:22:36;;;;;;;136.32;30.23;;;;;;;5.85;100.00;99868.13;5046395;28;20032;-73
2021/12/27 09:25:01;;;;;;;76.35;26.02;;;;;;;5.83;100.00;99870.28;5066688;28;20162;-73
2021/12/27 09:27:28;;;;;;;51.95;24.50;;;;;;;6.00;100.00;99877.34;5037941;28;20111;-72
2021/12/27 09:29:54;;;;;;;61.25;24.88;;;;;;;5.99;100.00;99878.47;5045072;28;20095;-73
2021/12/27 09:32:20;;;;;;;76.15;25.45;;;;;;;5.97;100.00;99878.72;5044088;28;20404;-72
2021/12/27 09:34:45;;;;;;;93.13;27.52;;;;;;;5.93;100.00;99882.25;5026047;28;20177;-73
2021/12/27 09:37:10;;;;;;;129.98;30.55;;;;;;;5.91;100.00;99873.53;5027362;28;20446;-74
2021/12/27 09:39:36;;;;;;;105.70;28.45;;;;;;;6.00;100.00;99864.56;5045200;28;20174;-74
2021/12/27 09:42:02;;;;;;;113.40;29.63;;;;;;;5.94;100.00;99875.72;5029106;28;20037;-74
2021/12/27 09:44:27;;;;;;;72.88;27.17;;;;;;;5.97;100.00;99881.44;5043340;28;20017;-74
2021/12/27 09:46:53;;;;;;;155.85;31.75;;;;;;;5.88;100.00;99862.09;5049209;28;21421;-76
2021/12/27 09:49:21;;;;;;;58.83;27.48;;;;;;;6.13;100.00;99857.72;5057788;28;20027;-74
2021/12/27 09:51:47;;;;;;;74.65;27.23;;;;;;;6.02;100.00;99856.94;5047087;28;20029;-73
2021/12/27 09:54:13;;;;;;;142.85;32.28;;;;;;;6.16;100.00;99845.47;5066380;28;20044;-76
2021/12/27 09:56:40;;;;;;;85.00;27.80;;;;;;;6.22;100.00;99844.38;5064270;28;20040;-74
2021/12/27 09:59:06;;;;;;;118.25;32.17;;;;;;;6.25;100.00;99828.28;5022577;28;20364;-74
2021/12/27 10:01:34;;;;;;;142.45;31.52;;;;;;;6.16;100.00;99823.69;5045690;28;20044;-74
2021/12/27 10:04:01;;;;;;;216.63;35.40;;;;;;;6.33;100.00;99820.63;5021855;28;20104;-74
2021/12/27 10:06:28;;;;;;;65.78;27.35;;;;;;;6.31;100.00;99820.91;5056720;28;20044;-74
2021/12/27 10:08:57;;;;;;;158.88;32.95;;;;;;;6.33;100.00;99816.03;5041825;28;20601;-74
2021/12/27 10:11:31;;;;;;;145.93;31.50;;;;;;;6.28;100.00;99809.78;5047864;28;20031;-74
2021/12/27 10:13:58;;;;;;;73.18;26.00;;;;;;;6.19;100.00;99813.06;5060479;28;20033;-74
2021/12/27 10:16:25;;;;;;;59.80;26.27;;;;;;;6.37;100.00;99808.91;5066090;28;20028;-74
2021/12/27 10:18:59;;;;;;;227.00;33.13;;;;;;;6.18;100.00;99800.56;5056782;28;20028;-75
2021/12/27 10:21:25;;;;;;;78.00;27.00;;;;;;;6.43;100.00;99798.81;5056314;28;20044;-74
2021/12/27 10:24:15;;;;;;;98.57;29.48;;;;;;;6.24;100.00;99820.41;5042786;28;20025;-74
2021/12/27 10:26:46;;;;;;;119.28;29.17;;;;;;;6.17;100.00;99796.22;5050738;28;20282;-74
2021/12/27 10:29:28;;;;;;;76.30;25.98;;;;;;;6.25;100.00;99822.84;5034394;28;20032;-73
2021/12/27 10:32:04;;;;;;;62.08;23.52;;;;;;;6.34;100.00;99825.00;5059164;28;20472;-73
2021/12/27 10:34:51;;;;;;;70.72;24.38;;;;;;;6.35;100.00;99821.19;5041865;28;20032;-73
2021/12/27 10:37:21;;;;;;;57.40;23.00;;;;;;;6.42;100.00;99817.06;5053999;28;20048;-74
2021/12/27 10:40:02;;;;;;;50.47;23.00;;;;;;;6.41;100.00;99810.00;5060364;28;20062;-74
2021/12/27 10:42:33;;;;;;;97.28;24.80;;;;;;;6.55;100.00;99815.63;5064426;28;20071;-74
2021/12/27 10:45:11;;;;;;;54.28;22.75;;;;;;;6.52;100.00;99805.28;5057061;28;20542;-74
2021/12/27 10:47:45;;;;;;;44.55;20.83;;;;;;;6.55;100.00;99807.47;5050130;28;20128;-74
2021/12/27 10:50:23;;;;;;;56.55;22.42;;;;;;;6.54;100.00;99815.91;5056053;28;20079;-74
2021/12/27 10:53:08;;;;;;;54.90;22.80;;;;;;;6.55;100.00;99812.91;5042934;28;20487;-73
2021/12/27 10:55:46;;;;;;;64.05;25.00;;;;;;;6.67;100.00;99822.66;5042477;28;20036;-74
2021/12/27 10:58:20;;;;;;;113.50;25.85;;;;;;;6.68;100.00;99810.69;5055833;28;20060;-74
2021/12/27 11:01:12;;;;;;;61.80;23.10;;;;;;;6.69;100.00;99799.50;5055948;28;20036;-73
2021/12/27 11:03:42;;;;;;;54.40;22.67;;;;;;;6.66;100.00;99800.06;5057729;28;20055;-73
2021/12/27 11:06:10;;;;;;;58.95;24.48;;;;;;;6.81;100.00;99797.22;5060384;28;20048;-73
2021/12/27 11:08:45;;;;;;;71.95;25.08;;;;;;;6.73;100.00;99789.66;5058880;28;20028;-74
2021/12/27 11:11:12;;;;;;;94.18;27.48;;;;;;;6.84;100.00;99803.19;5052862;28;20021;-73
2021/12/27 11:13:40;;;;;;;56.67;24.52;;;;;;;6.88;100.00;99796.91;5052805;28;20036;-73